createdAt,value
2022-12-23T00:02:08.266Z,-5.76
2022-12-23T00:04:55.318Z,-5.82
2022-12-23T00:07:42.195Z,-5.82
2022-12-23T00:10:29.754Z,-5.85
2022-12-23T00:13:14.836Z,-5.89
2022-12-23T00:16:02.070Z,-6.00
2022-12-23T00:18:49.414Z,-5.97
2022-12-23T00:21:37.183Z,-6.54
2022-12-23T00:24:24.185Z,-6.02
2022-12-23T00:27:11.434Z,-6.05
2022-12-23T00:29:58.242Z,-6.12
2022-12-23T00:32:45.281Z,-6.10
2022-12-23T00:35:32.221Z,-6.44
2022-12-23T00:38:19.431Z,-6.17
2022-12-23T00:41:09.686Z,-6.20
2022-12-23T00:43:56.616Z,-6.21
2022-12-23T00:46:43.485Z,-6.28
2022-12-23T00:49:33.348Z,-6.38
2022-12-23T00:52:21.341Z,-6.30
2022-12-23T00:55:08.610Z,-6.64
2022-12-23T00:57:55.546Z,-6.43
2022-12-23T01:00:43.335Z,-6.38
2022-12-23T01:03:33.971Z,-6.41
2022-12-23T01:06:22.416Z,-6.45
2022-12-23T01:09:09.291Z,-6.50
2022-12-23T01:11:56.276Z,-6.57
2022-12-23T01:14:43.368Z,-6.57
2022-12-23T01:17:30.465Z,-6.59
2022-12-23T01:20:17.409Z,-6.61
2022-12-23T01:23:04.274Z,-6.64
2022-12-23T01:25:51.829Z,-6.67
2022-12-23T01:28:38.905Z,-6.69
2022-12-23T01:31:29.897Z,-6.72
2022-12-23T01:34:17.145Z,-7.01
2022-12-23T01:37:04.215Z,-6.88
2022-12-23T01:39:51.421Z,-6.96
2022-12-23T01:42:39.225Z,-6.80
2022-12-23T01:45:41.390Z,-6.83
2022-12-23T01:48:30.571Z,-6.85
2022-12-23T01:51:26.618Z,-6.88
2022-12-23T01:54:17.479Z,-7.08
2022-12-23T01:57:04.610Z,-6.92
2022-12-23T01:59:50.070Z,-6.94
2022-12-23T02:02:35.915Z,-6.99
2022-12-23T02:05:22.969Z,-7.38
2022-12-23T02:08:11.126Z,-7.00
2022-12-23T02:11:35.854Z,-7.21
2022-12-23T02:14:40.469Z,-7.17
2022-12-23T02:17:49.230Z,-7.08
2022-12-23T02:21:11.283Z,-7.14
2022-12-23T02:24:16.533Z,-7.12
2022-12-23T02:27:26.171Z,-7.15
2022-12-23T02:30:39.362Z,-7.18
2022-12-23T02:33:39.586Z,-7.20
2022-12-23T02:36:38.596Z,-7.23
2022-12-23T02:39:33.462Z,-7.26
2022-12-23T02:42:38.854Z,-7.28
2022-12-23T02:45:42.755Z,-7.36
2022-12-23T02:48:52.925Z,-7.34
2022-12-23T02:51:47.083Z,-7.37
2022-12-23T02:54:38.599Z,-7.93
2022-12-23T02:57:28.801Z,-7.44
2022-12-23T03:00:18.998Z,-7.48
2022-12-23T03:03:06.569Z,-7.51
2022-12-23T03:05:58.369Z,-7.53
2022-12-23T03:08:59.552Z,-7.58
2022-12-23T03:12:05.111Z,-7.61
2022-12-23T03:15:16.564Z,-7.66
2022-12-23T03:18:53.357Z,-7.70
2022-12-23T03:21:51.292Z,-7.78
2022-12-23T03:24:50.506Z,-8.02
2022-12-23T03:27:49.885Z,-7.82
2022-12-23T03:30:39.779Z,-7.87
2022-12-23T03:33:57.305Z,-7.90
2022-12-23T03:37:00.053Z,-7.94
2022-12-23T03:39:54.707Z,-7.97
2022-12-23T03:42:54.522Z,-8.38
2022-12-23T03:45:50.561Z,-8.06
2022-12-23T03:48:41.805Z,-8.10
2022-12-23T03:51:36.881Z,-8.12
2022-12-23T03:54:30.485Z,-8.73
2022-12-23T03:57:25.142Z,-8.24
2022-12-23T04:00:12.171Z,-8.22
2022-12-23T04:03:38.708Z,-8.25
2022-12-23T04:06:30.578Z,-8.28
2022-12-23T04:09:21.918Z,-8.31
2022-12-23T04:12:09.752Z,-8.33
2022-12-23T04:14:57.919Z,-8.36
2022-12-23T04:17:45.189Z,-8.39
2022-12-23T04:20:32.174Z,-8.42
2022-12-23T04:23:19.118Z,-8.44
2022-12-23T04:26:06.139Z,-8.46
2022-12-23T04:28:53.146Z,-8.49
2022-12-23T04:31:40.084Z,-8.51
2022-12-23T04:34:27.062Z,-8.58
2022-12-23T04:37:13.965Z,-8.56
2022-12-23T04:40:01.058Z,-8.77
2022-12-23T04:42:48.008Z,-8.78
2022-12-23T04:45:35.136Z,-8.63
2022-12-23T04:48:22.202Z,-8.66
2022-12-23T04:51:09.258Z,-8.67
2022-12-23T04:53:56.634Z,-8.76
2022-12-23T04:56:43.813Z,-8.71
2022-12-23T04:59:30.878Z,-8.73
2022-12-23T05:02:18.697Z,-8.98
2022-12-23T05:05:05.725Z,-8.78
2022-12-23T05:07:52.755Z,-8.80
2022-12-23T05:10:39.561Z,-8.82
2022-12-23T05:13:26.607Z,-9.00
2022-12-23T05:16:14.533Z,-8.86
2022-12-23T05:19:01.630Z,-8.93
2022-12-23T05:21:48.514Z,-8.86
2022-12-23T05:24:35.561Z,-8.88
2022-12-23T05:27:22.355Z,-8.89
2022-12-23T05:30:09.330Z,-8.90
2022-12-23T05:32:56.588Z,-8.91
2022-12-23T05:35:45.721Z,-8.92
2022-12-23T05:38:32.571Z,-8.93
2022-12-23T05:41:19.636Z,-8.95
2022-12-23T05:44:06.509Z,-8.96
2022-12-23T05:46:53.578Z,-9.02
2022-12-23T05:49:40.615Z,-9.11
2022-12-23T05:52:27.478Z,-8.99
2022-12-23T05:55:14.316Z,-8.99
2022-12-23T05:58:01.601Z,-9.00
2022-12-23T06:00:48.585Z,-9.02
2022-12-23T06:03:36.754Z,-9.39
2022-12-23T06:06:23.962Z,-9.04
2022-12-23T06:09:12.178Z,-9.05
2022-12-23T06:11:59.157Z,-9.89
2022-12-23T06:14:46.220Z,-9.08
2022-12-23T06:17:33.457Z,-9.09
2022-12-23T06:20:21.249Z,-9.10
2022-12-23T06:23:08.237Z,-9.10
2022-12-23T06:25:55.350Z,-9.13
2022-12-23T06:28:42.282Z,-9.14
2022-12-23T06:31:29.388Z,-9.15
2022-12-23T06:34:16.475Z,-9.17
2022-12-23T06:37:03.761Z,-9.18
2022-12-23T06:39:50.872Z,-9.57
2022-12-23T06:42:38.158Z,-9.67
2022-12-23T06:45:25.550Z,-9.22
2022-12-23T06:48:12.680Z,-9.46
2022-12-23T06:50:59.571Z,-9.25
2022-12-23T06:53:46.603Z,-9.48
2022-12-23T06:56:33.524Z,-9.27
2022-12-23T06:59:20.542Z,-9.31
2022-12-23T07:02:07.493Z,-9.29
2022-12-23T07:04:54.655Z,-9.73
2022-12-23T07:07:41.472Z,-9.37
2022-12-23T07:10:29.308Z,-9.33
2022-12-23T07:13:16.213Z,-9.45
2022-12-23T07:16:03.228Z,-9.37
2022-12-23T07:18:50.046Z,-9.45
2022-12-23T07:21:37.135Z,-9.42
2022-12-23T07:24:24.599Z,-9.44
2022-12-23T07:27:12.281Z,-9.70
2022-12-23T07:29:59.119Z,-9.46
2022-12-23T07:32:46.253Z,-9.48
2022-12-23T07:35:33.197Z,-9.48
2022-12-23T07:38:20.389Z,-9.51
2022-12-23T07:41:09.089Z,-9.53
2022-12-23T07:43:56.012Z,-9.54
2022-12-23T07:46:43.035Z,-9.56
2022-12-23T07:49:30.157Z,-9.61
2022-12-23T07:52:17.769Z,-9.58
2022-12-23T07:55:04.770Z,-9.60
2022-12-23T07:57:52.127Z,-9.62
2022-12-23T08:00:40.420Z,-10.44
2022-12-23T08:03:29.517Z,-9.64
2022-12-23T08:06:25.983Z,-9.71
2022-12-23T08:09:12.925Z,-9.77
2022-12-23T08:11:59.796Z,-9.70
2022-12-23T08:14:46.807Z,-9.72
2022-12-23T08:17:34.331Z,-9.73
2022-12-23T08:20:21.192Z,-10.57
2022-12-23T08:23:08.081Z,-9.81
2022-12-23T08:25:55.013Z,-9.79
2022-12-23T08:28:42.025Z,-9.80
2022-12-23T08:31:33.372Z,-9.82
2022-12-23T08:34:21.517Z,-9.85
2022-12-23T08:37:08.595Z,-9.86
2022-12-23T14:44:31.474Z,-9.57
2022-12-23T14:46:59.096Z,-9.60
2022-12-23T14:50:03.650Z,-9.61
2022-12-23T14:53:05.462Z,-9.62
2022-12-23T14:55:52.357Z,-9.64
2022-12-23T14:58:51.254Z,-9.65
2022-12-23T15:01:40.135Z,-9.68
2022-12-23T15:04:49.694Z,-9.70
2022-12-23T15:07:51.253Z,-9.73
2022-12-23T15:10:42.169Z,-9.75
2022-12-23T15:13:37.109Z,-9.85
2022-12-23T15:16:24.076Z,-9.93
2022-12-23T15:19:15.744Z,-9.83
2022-12-23T15:22:13.226Z,-10.21
2022-12-23T15:25:06.698Z,-9.89
2022-12-23T15:28:01.558Z,-10.01
2022-12-23T15:31:06.154Z,-9.99
2022-12-23T15:34:03.986Z,-10.02
2022-12-23T15:36:57.422Z,-10.07
2022-12-23T15:39:57.962Z,-10.04
2022-12-23T15:42:51.562Z,-10.06
2022-12-23T15:45:59.610Z,-10.06
2022-12-23T15:48:50.354Z,-10.06
2022-12-23T15:54:55.677Z,-10.14
2022-12-23T15:57:50.409Z,-10.07
2022-12-23T16:00:51.132Z,-10.10
2022-12-23T16:03:50.921Z,-10.08
2022-12-23T16:06:40.602Z,-10.08
2022-12-23T16:09:37.535Z,-10.09
2022-12-23T16:12:36.633Z,-10.10
2022-12-23T16:15:57.464Z,-10.11
2022-12-23T16:18:47.751Z,-10.12
2022-12-23T16:21:35.470Z,-10.14
2022-12-23T16:24:28.445Z,-10.17
2022-12-23T16:27:15.501Z,-10.18
2022-12-23T16:30:03.166Z,-10.19
2022-12-23T16:32:50.384Z,-10.20
2022-12-23T16:35:58.970Z,-10.20
2022-12-23T16:38:47.197Z,-11.02
2022-12-23T16:41:34.537Z,-10.20
2022-12-23T16:44:23.056Z,-10.21
2022-12-23T16:47:11.653Z,-11.06
2022-12-23T16:49:58.493Z,-10.21
2022-12-23T16:52:45.488Z,-10.23
2022-12-23T16:55:35.982Z,-10.23
2022-12-23T16:58:22.927Z,-10.23
2022-12-23T17:01:11.215Z,-10.26
2022-12-23T17:03:58.245Z,-10.23
2022-12-23T17:06:45.687Z,-10.25
2022-12-23T17:09:32.755Z,-10.25
2022-12-23T17:12:19.805Z,-10.26
2022-12-23T17:15:06.879Z,-10.33
2022-12-23T17:17:59.056Z,-11.13
2022-12-23T17:20:46.189Z,-10.36
2022-12-23T17:23:51.052Z,-10.27
2022-12-23T17:26:38.276Z,-10.78
2022-12-23T17:29:26.102Z,-10.30
2022-12-23T17:32:13.172Z,-10.30
2022-12-23T17:35:00.871Z,-10.61
2022-12-23T17:37:48.386Z,-10.80
2022-12-23T17:40:36.177Z,-10.30
2022-12-23T17:43:24.223Z,-10.31
2022-12-23T17:46:11.488Z,-10.32
2022-12-23T17:48:58.576Z,-10.37
2022-12-23T17:51:47.233Z,-10.32
2022-12-23T17:54:42.561Z,-10.32
2022-12-23T17:57:44.460Z,-10.33
2022-12-23T18:00:34.613Z,-10.31
2022-12-23T18:03:21.822Z,-10.34
2022-12-23T18:06:08.883Z,-10.30
2022-12-23T18:08:55.861Z,-10.30
2022-12-23T18:11:56.335Z,-10.29
2022-12-23T18:14:46.969Z,-10.28
2022-12-23T18:17:37.397Z,-10.62
2022-12-23T18:20:24.772Z,-10.33
2022-12-23T18:23:14.242Z,-10.29
2022-12-23T18:26:01.727Z,-10.29
2022-12-23T18:28:48.557Z,-10.34
2022-12-23T18:31:38.756Z,-10.28
2022-12-23T18:34:25.665Z,-10.48
2022-12-23T18:37:12.475Z,-10.42
2022-12-23T18:39:59.461Z,-10.42
2022-12-23T18:42:46.679Z,-10.59
2022-12-23T18:45:54.324Z,-10.35
2022-12-23T18:48:41.843Z,-10.20
2022-12-23T18:51:34.033Z,-10.20
2022-12-23T18:54:21.037Z,-10.19
2022-12-23T18:57:07.870Z,-10.19
2022-12-23T18:59:54.849Z,-10.24
2022-12-23T19:02:41.698Z,-10.19
2022-12-23T19:05:36.327Z,-10.14
2022-12-23T19:08:26.748Z,-10.12
2022-12-23T19:11:15.333Z,-10.10
2022-12-23T19:14:02.350Z,-10.09
2022-12-23T19:16:51.949Z,-10.09
2022-12-23T19:19:40.330Z,-10.09
2022-12-23T19:22:27.231Z,-10.08
2022-12-23T19:25:14.177Z,-10.06
2022-12-23T19:28:02.699Z,-10.04
2022-12-23T19:30:49.639Z,-10.04
2022-12-23T19:33:36.909Z,-10.66
2022-12-23T19:36:29.329Z,-10.05
2022-12-23T19:39:17.484Z,-10.17
2022-12-23T19:42:05.028Z,-10.95
2022-12-23T19:44:52.089Z,-10.46
2022-12-23T19:47:39.018Z,-10.11
2022-12-23T19:50:46.119Z,-10.02
2022-12-23T19:53:33.034Z,-10.02
2022-12-23T19:56:14.781Z,-10.03
2022-12-23T19:58:43.198Z,-10.02
2022-12-23T20:01:16.669Z,-10.03
2022-12-23T20:03:45.518Z,-10.01
2022-12-23T20:06:22.137Z,-10.01
2022-12-23T20:09:09.557Z,-10.01
2022-12-23T20:12:00.119Z,-9.99
2022-12-23T20:14:47.586Z,-10.63
2022-12-23T20:17:34.405Z,-9.98
2022-12-23T20:20:21.389Z,-9.95
2022-12-23T20:23:08.348Z,-9.95
2022-12-23T20:25:55.189Z,-9.92
2022-12-23T20:28:42.392Z,-9.91
2022-12-23T20:31:35.815Z,-9.91
2022-12-23T20:34:23.046Z,-9.90
2022-12-23T20:37:10.039Z,-9.88
2022-12-23T20:39:56.866Z,-9.86
2022-12-23T20:42:44.031Z,-9.82
2022-12-23T20:45:31.672Z,-9.80
2022-12-23T20:48:18.832Z,-9.79
2022-12-23T20:51:05.702Z,-10.02
2022-12-23T20:53:52.880Z,-9.76
2022-12-23T20:56:40.820Z,-9.76
2022-12-23T20:59:27.898Z,-9.77
2022-12-23T21:02:14.955Z,-9.78
2022-12-23T21:05:02.517Z,-9.88
2022-12-23T21:07:50.337Z,-9.82
2022-12-23T21:10:37.661Z,-9.81
2022-12-23T21:13:25.045Z,-9.75
2022-12-23T21:16:12.299Z,-9.82
2022-12-23T21:19:01.466Z,-9.74
2022-12-23T21:21:49.541Z,-9.73
2022-12-23T21:24:36.622Z,-9.72
2022-12-23T21:27:23.811Z,-10.22
2022-12-23T21:30:10.699Z,-9.74
2022-12-23T21:32:57.732Z,-9.75
2022-12-23T21:35:44.570Z,-9.76
2022-12-23T21:38:31.647Z,-10.04
2022-12-23T21:41:23.101Z,-9.74
2022-12-23T21:44:10.517Z,-9.71
2022-12-23T21:46:57.554Z,-9.71
2022-12-23T21:49:44.773Z,-9.69
2022-12-23T21:52:31.871Z,-9.71
2022-12-23T21:55:18.908Z,-10.03
2022-12-23T21:58:05.863Z,-9.60
2022-12-23T22:00:52.992Z,-9.54
2022-12-23T22:03:40.081Z,-9.57
2022-12-23T22:06:33.192Z,-9.43
2022-12-23T22:09:19.991Z,-9.33
2022-12-23T22:12:07.939Z,-9.22
2022-12-23T22:14:54.793Z,-9.12
2022-12-23T22:17:41.809Z,-8.99
2022-12-23T22:20:29.543Z,-8.82
2022-12-23T22:23:17.067Z,-8.71
2022-12-23T22:26:12.452Z,-8.58
2022-12-23T22:29:00.178Z,-8.46
2022-12-23T22:31:50.157Z,-8.48
2022-12-23T22:34:40.143Z,-8.29
2022-12-23T22:37:27.104Z,-8.15
2022-12-23T22:40:14.195Z,-8.80
2022-12-23T22:43:01.226Z,-7.93
2022-12-23T22:45:48.233Z,-7.81
2022-12-23T22:48:35.728Z,-7.82
2022-12-23T22:51:30.969Z,-7.61
2022-12-23T22:54:17.993Z,-8.09
2022-12-23T22:57:08.475Z,-7.88
2022-12-23T22:59:55.500Z,-7.23
2022-12-23T23:02:46.080Z,-7.12
2022-12-23T23:05:33.172Z,-7.03
2022-12-23T23:08:20.271Z,-6.98
2022-12-23T23:11:07.266Z,-6.84
2022-12-23T23:13:55.706Z,-6.74
2022-12-23T23:16:43.995Z,-6.64
2022-12-23T23:19:31.704Z,-6.57
2022-12-23T23:22:18.623Z,-6.48
2022-12-23T23:25:05.743Z,-6.41
2022-12-23T23:27:52.709Z,-6.36
2022-12-23T23:30:39.715Z,-6.31
2022-12-23T23:33:28.136Z,-6.25
2022-12-23T23:36:16.520Z,-6.17
2022-12-23T23:39:03.484Z,-6.11
2022-12-23T23:41:50.657Z,-6.05
2022-12-23T23:44:37.893Z,-6.05
2022-12-23T23:47:25.058Z,-6.02
2022-12-23T23:50:11.979Z,-6.42
2022-12-23T23:52:59.046Z,-5.90
2022-12-23T23:55:45.896Z,-5.88
2022-12-23T23:58:32.971Z,-5.83
